createdAt,value
2019-06-15T00:00:11.168Z,3.07
2019-06-15T00:02:39.772Z,3.30
2019-06-15T00:05:08.815Z,3.37
2019-06-15T00:07:38.637Z,3.27
2019-06-15T00:10:07.737Z,2.53
2019-06-15T00:12:36.564Z,3.43
2019-06-15T00:15:06.783Z,2.90
2019-06-15T00:17:35.908Z,2.97
2019-06-15T00:20:06.042Z,3.57
2019-06-15T00:22:34.839Z,2.50
2019-06-15T00:25:04.184Z,2.70
2019-06-15T00:27:33.044Z,2.90
2019-06-15T00:30:01.824Z,3.00
2019-06-15T00:32:30.472Z,2.83
2019-06-15T00:34:59.427Z,3.13
2019-06-15T00:37:28.513Z,2.93
2019-06-15T00:39:57.537Z,2.87
2019-06-15T00:42:26.307Z,2.80
2019-06-15T00:44:55.027Z,3.00
2019-06-15T00:47:24.035Z,2.90
2019-06-15T00:49:52.759Z,3.43
2019-06-15T00:52:21.511Z,2.90
2019-06-15T00:54:50.872Z,3.17
2019-06-15T00:57:19.985Z,2.70
2019-06-15T00:59:48.979Z,3.33
2019-06-15T01:02:17.672Z,3.00
2019-06-15T01:04:46.392Z,2.97
2019-06-15T01:07:15.523Z,2.93
2019-06-15T01:09:44.391Z,3.10
2019-06-15T01:12:13.250Z,2.83
2019-06-15T01:14:42.302Z,2.77
2019-06-15T01:17:11.136Z,2.77
2019-06-15T01:19:40.062Z,2.90
2019-06-15T01:22:08.816Z,2.60
2019-06-15T01:24:37.573Z,2.73
2019-06-15T01:27:06.569Z,3.10
2019-06-15T01:29:37.554Z,2.73
2019-06-15T01:32:07.669Z,2.70
2019-06-15T01:34:36.370Z,2.80
2019-06-15T01:37:05.300Z,2.70
2019-06-15T01:39:34.174Z,2.90
2019-06-15T01:42:04.056Z,3.17
2019-06-15T01:44:34.929Z,2.63
2019-06-15T01:47:03.936Z,3.27
2019-06-15T01:49:32.885Z,2.90
2019-06-15T01:52:03.232Z,2.80
2019-06-15T01:54:32.176Z,2.70
2019-06-15T01:57:03.709Z,2.60
2019-06-15T01:59:32.468Z,2.70
2019-06-15T02:02:01.240Z,2.97
2019-06-15T02:04:30.488Z,3.20
2019-06-15T02:06:59.419Z,2.70
2019-06-15T02:09:28.673Z,2.67
2019-06-15T02:11:59.551Z,2.70
2019-06-15T02:14:28.673Z,2.57
2019-06-15T02:16:57.370Z,3.17
2019-06-15T02:19:26.299Z,2.77
2019-06-15T02:21:57.737Z,2.57
2019-06-15T02:24:26.669Z,2.87
2019-06-15T02:26:57.877Z,2.70
2019-06-15T02:29:26.803Z,3.40
2019-06-15T02:31:55.558Z,3.13
2019-06-15T02:34:26.369Z,2.83
2019-06-15T02:36:55.222Z,3.20
2019-06-15T02:39:24.241Z,3.60
2019-06-15T02:41:55.084Z,2.87
2019-06-15T02:44:24.027Z,2.77
2019-06-15T02:46:52.804Z,3.20
2019-06-15T02:49:22.416Z,3.10
2019-06-15T02:51:53.235Z,2.97
2019-06-15T02:54:22.104Z,3.23
2019-06-15T02:56:51.662Z,3.40
2019-06-15T02:59:23.163Z,2.90
2019-06-15T03:01:52.067Z,2.87
2019-06-15T03:04:20.733Z,3.17
2019-06-15T03:06:49.519Z,3.00
2019-06-15T03:09:18.702Z,2.70
2019-06-15T03:11:47.401Z,3.13
2019-06-15T03:14:19.428Z,3.17
2019-06-15T03:16:48.152Z,2.90
2019-06-15T03:19:17.160Z,3.10
2019-06-15T03:21:46.048Z,3.20
2019-06-15T03:24:15.165Z,2.93
2019-06-15T03:26:43.964Z,2.90
2019-06-15T03:29:12.774Z,3.20
2019-06-15T03:31:45.235Z,3.07
2019-06-15T03:34:16.076Z,3.40
2019-06-15T03:36:47.492Z,2.57
2019-06-15T03:39:16.144Z,3.17
2019-06-15T03:41:44.964Z,3.20
2019-06-15T03:44:13.886Z,3.27
2019-06-15T03:46:43.020Z,3.50
2019-06-15T03:49:13.200Z,2.83
2019-06-15T03:51:42.145Z,2.80
2019-06-15T03:54:11.249Z,3.13
2019-06-15T03:56:40.457Z,3.43
2019-06-15T03:59:09.193Z,3.10
2019-06-15T04:01:43.637Z,3.50
2019-06-15T04:04:12.650Z,3.10
2019-06-15T04:06:41.337Z,2.97
2019-06-15T04:09:11.222Z,3.20
2019-06-15T04:11:40.093Z,2.93
2019-06-15T04:14:12.137Z,3.87
2019-06-15T04:16:41.104Z,3.10
2019-06-15T04:19:11.868Z,2.87
2019-06-15T04:21:40.842Z,3.20
2019-06-15T04:24:09.523Z,3.07
2019-06-15T04:26:38.725Z,2.90
2019-06-15T04:29:07.527Z,3.10
2019-06-15T04:31:39.223Z,3.33
2019-06-15T04:34:07.025Z,3.40
2019-06-15T04:36:35.752Z,3.00
2019-06-15T04:39:06.516Z,3.27
2019-06-15T04:41:35.277Z,3.60
2019-06-15T04:44:04.386Z,3.60
2019-06-15T04:46:33.134Z,3.10
2019-06-15T04:49:03.362Z,3.30
2019-06-15T04:51:32.058Z,3.40
2019-06-15T04:54:02.533Z,3.80
2019-06-15T04:56:31.530Z,3.37
2019-06-15T04:59:00.312Z,3.50
2019-06-15T05:01:29.143Z,3.23
2019-06-15T05:03:58.008Z,3.43
2019-06-15T05:06:26.870Z,3.57
2019-06-15T05:08:56.840Z,3.43
2019-06-15T05:11:25.919Z,3.03
2019-06-15T05:13:54.838Z,3.00
2019-06-15T05:16:23.713Z,2.90
2019-06-15T05:18:55.202Z,3.20
2019-06-15T05:21:25.099Z,3.30
2019-06-15T05:23:53.844Z,3.23
2019-06-15T05:26:24.079Z,3.03
2019-06-15T05:28:52.893Z,3.27
2019-06-15T05:31:22.180Z,3.20
2019-06-15T05:33:51.426Z,2.90
2019-06-15T05:36:20.228Z,3.30
2019-06-15T05:38:49.313Z,3.60
2019-06-15T05:41:18.792Z,3.10
2019-06-15T05:43:47.591Z,3.00
2019-06-15T05:46:17.077Z,3.23
2019-06-15T05:48:46.031Z,3.17
2019-06-15T05:51:15.000Z,2.67
2019-06-15T05:53:43.883Z,2.97
2019-06-15T05:56:12.638Z,2.93
2019-06-15T05:58:41.664Z,2.80
2019-06-15T06:01:10.414Z,3.03
2019-06-15T06:03:40.370Z,3.00
2019-06-15T06:06:09.423Z,3.07
2019-06-15T06:08:38.419Z,2.87
2019-06-15T06:11:07.211Z,2.80
2019-06-15T06:13:36.276Z,2.70
2019-06-15T06:16:05.629Z,2.53
2019-06-15T06:18:34.602Z,2.70
2019-06-15T06:21:03.297Z,2.60
2019-06-15T06:23:32.206Z,2.73
2019-06-15T06:26:01.167Z,3.37
2019-06-15T06:28:30.312Z,2.67
2019-06-15T06:30:59.308Z,1.90
2019-06-15T06:33:28.102Z,2.03
2019-06-15T06:35:57.157Z,2.40
2019-06-15T06:38:25.775Z,2.13
2019-06-15T06:40:55.092Z,2.07
2019-06-15T06:43:24.069Z,2.13
2019-06-15T06:45:52.799Z,1.90
2019-06-15T06:48:24.830Z,1.73
2019-06-15T06:50:53.920Z,1.77
2019-06-15T06:53:22.713Z,2.63
2019-06-15T06:55:51.659Z,1.57
2019-06-15T06:58:20.678Z,1.50
2019-06-15T07:00:49.528Z,1.90
2019-06-15T07:03:18.402Z,1.50
2019-06-15T07:05:47.610Z,1.60
2019-06-15T07:08:16.646Z,1.40
2019-06-15T07:10:45.445Z,1.63
2019-06-15T07:13:14.469Z,1.33
2019-06-15T07:15:43.581Z,1.50
2019-06-15T07:18:16.757Z,1.33
2019-06-15T07:20:45.631Z,1.27
2019-06-15T07:23:14.718Z,1.33
2019-06-15T07:25:43.443Z,1.67
2019-06-15T07:28:12.228Z,1.10
2019-06-15T07:30:41.131Z,1.37
2019-06-15T07:33:10.105Z,1.67
2019-06-15T07:35:38.874Z,1.00
2019-06-15T07:38:07.760Z,1.20
2019-06-15T07:40:36.705Z,1.30
2019-06-15T07:43:07.138Z,1.20
2019-06-15T07:45:36.036Z,1.60
2019-06-15T07:48:05.260Z,1.23
2019-06-15T07:50:34.281Z,1.77
2019-06-15T07:53:03.054Z,1.57
2019-06-15T07:55:32.122Z,1.90
2019-06-15T07:58:01.060Z,1.60
2019-06-15T08:00:32.807Z,1.60
2019-06-15T08:03:01.831Z,1.90
2019-06-15T08:05:30.705Z,2.03
2019-06-15T08:07:59.806Z,1.50
2019-06-15T08:10:28.857Z,1.80
2019-06-15T08:12:57.629Z,1.43
2019-06-15T08:15:26.375Z,1.90
2019-06-15T08:17:56.719Z,1.47
2019-06-15T08:20:33.312Z,1.80
2019-06-15T08:23:02.273Z,2.43
2019-06-15T08:25:31.639Z,1.40
2019-06-15T08:28:01.637Z,1.77
2019-06-15T08:30:36.483Z,1.80
2019-06-15T08:33:05.249Z,1.50
2019-06-15T08:35:39.081Z,1.47
2019-06-15T08:38:08.091Z,1.47
2019-06-15T08:40:37.906Z,1.40
2019-06-15T08:43:06.907Z,1.60
2019-06-15T08:45:35.787Z,1.70
2019-06-15T08:48:05.466Z,1.70
2019-06-15T08:50:34.982Z,1.40
2019-06-15T08:53:04.110Z,1.80
2019-06-15T08:55:33.055Z,1.60
2019-06-15T08:58:02.158Z,1.60
2019-06-15T09:00:33.303Z,1.40
2019-06-15T09:03:02.395Z,1.40
2019-06-15T09:05:31.371Z,1.60
2019-06-15T09:08:01.205Z,1.50
2019-06-15T09:10:30.257Z,2.37
2019-06-15T09:13:00.571Z,1.67
2019-06-15T09:15:35.527Z,1.47
2019-06-15T09:18:04.490Z,1.50
2019-06-15T09:20:37.365Z,1.47
2019-06-15T09:23:06.243Z,1.60
2019-06-15T09:25:36.883Z,1.43
2019-06-15T09:28:06.032Z,1.83
2019-06-15T09:30:35.056Z,1.53
2019-06-15T09:33:03.912Z,1.60
2019-06-15T09:35:34.227Z,1.80
2019-06-15T09:38:07.590Z,1.50
2019-06-15T09:40:36.381Z,1.50
2019-06-15T09:43:05.547Z,1.80
2019-06-15T09:45:36.989Z,1.40
2019-06-15T09:48:06.020Z,1.43
2019-06-15T09:50:34.978Z,1.70
2019-06-15T09:53:03.945Z,1.57
2019-06-15T09:55:32.883Z,1.73
2019-06-15T09:58:02.122Z,1.60
2019-06-15T10:00:31.137Z,1.80
2019-06-15T10:03:01.054Z,1.80
2019-06-15T10:05:30.457Z,1.70
2019-06-15T10:07:59.457Z,1.83
2019-06-15T10:10:28.227Z,1.60
2019-06-15T10:12:57.345Z,1.90
2019-06-15T10:15:26.618Z,1.30
2019-06-15T10:17:58.923Z,1.63
2019-06-15T10:20:29.348Z,1.50
2019-06-15T10:22:58.098Z,1.60
2019-06-15T10:25:26.815Z,1.40
2019-06-15T10:27:55.781Z,1.63
2019-06-15T10:30:24.524Z,1.43
2019-06-15T10:32:54.804Z,1.40
2019-06-15T10:35:24.215Z,2.00
2019-06-15T10:37:53.029Z,1.50
2019-06-15T10:40:22.200Z,1.57
2019-06-15T10:42:51.158Z,1.43
2019-06-15T10:45:23.312Z,1.47
2019-06-15T10:47:52.048Z,1.40
2019-06-15T10:50:22.579Z,1.70
2019-06-15T10:52:52.562Z,1.50
2019-06-15T10:55:21.671Z,1.53
2019-06-15T10:57:51.284Z,1.77
2019-06-15T11:00:20.861Z,1.93
2019-06-15T11:02:49.951Z,1.70
2019-06-15T11:05:20.464Z,1.63
2019-06-15T11:07:49.667Z,1.67
2019-06-15T11:10:24.412Z,1.40
2019-06-15T11:12:53.624Z,1.43
2019-06-15T11:15:22.564Z,1.50
2019-06-15T11:17:52.215Z,1.67
2019-06-15T11:20:21.508Z,1.80
2019-06-15T11:22:52.821Z,1.63
2019-06-15T11:25:21.655Z,1.80
2019-06-15T11:27:51.171Z,1.70
2019-06-15T11:30:20.283Z,1.80
2019-06-15T11:32:49.136Z,1.70
2019-06-15T11:35:18.249Z,1.80
2019-06-15T11:37:49.513Z,1.50
2019-06-15T11:40:18.332Z,1.80
2019-06-15T11:42:49.714Z,1.93
2019-06-15T11:45:18.952Z,2.30
2019-06-15T11:47:48.159Z,2.00
2019-06-15T11:50:17.094Z,1.90
2019-06-15T11:52:47.301Z,2.13
2019-06-15T11:55:19.719Z,2.03
2019-06-15T11:57:47.053Z,2.30
2019-06-15T12:00:30.829Z,2.10
2019-06-15T12:02:47.931Z,1.63
2019-06-15T12:05:17.192Z,2.20
2019-06-15T12:07:46.418Z,1.70
2019-06-15T12:10:15.229Z,1.80
2019-06-15T12:12:45.025Z,1.53
2019-06-15T12:15:16.425Z,1.80
2019-06-15T12:17:45.289Z,1.50
2019-06-15T12:20:14.229Z,1.70
2019-06-15T12:22:43.058Z,1.60
2019-06-15T12:25:13.374Z,1.70
2019-06-15T12:27:43.936Z,1.80
2019-06-15T12:30:14.144Z,1.73
2019-06-15T12:32:43.018Z,1.70
2019-06-15T12:35:18.090Z,1.60
2019-06-15T12:37:49.883Z,1.87
2019-06-15T12:40:18.905Z,1.37
2019-06-15T12:42:47.918Z,1.50
2019-06-15T12:45:16.776Z,1.87
2019-06-15T12:47:45.899Z,1.50
2019-06-15T12:50:15.156Z,1.73
2019-06-15T12:52:44.187Z,1.40
2019-06-15T12:55:13.292Z,1.57
2019-06-15T12:57:43.739Z,1.53
2019-06-15T13:00:14.258Z,1.40
2019-06-15T13:02:45.547Z,1.50
2019-06-15T13:05:17.852Z,1.60
2019-06-15T13:07:48.246Z,1.27
2019-06-15T13:10:19.111Z,1.70
2019-06-15T13:12:49.956Z,1.30
2019-06-15T13:15:19.128Z,1.40
2019-06-15T13:17:47.873Z,1.60
2019-06-15T13:20:17.030Z,1.57
2019-06-15T13:22:46.071Z,1.60
2019-06-15T13:25:15.638Z,1.63
2019-06-15T13:27:47.688Z,1.33
2019-06-15T13:30:24.897Z,1.70
2019-06-15T13:32:54.143Z,1.57
2019-06-15T13:35:46.405Z,1.50
2019-06-15T13:41:15.629Z,1.50
2019-06-15T13:43:55.214Z,1.57
2019-06-15T13:46:25.607Z,1.87
2019-06-15T13:49:02.615Z,1.70
2019-06-15T13:51:40.821Z,1.50
2019-06-15T13:54:18.894Z,1.53
2019-06-15T13:56:53.235Z,1.60
2019-06-15T13:59:34.085Z,1.73
2019-06-15T14:02:19.053Z,1.60
2019-06-15T14:04:54.599Z,1.63
2019-06-15T14:10:31.079Z,1.40
2019-06-15T14:13:04.315Z,1.50
2019-06-15T14:15:45.426Z,1.53
2019-06-15T14:18:22.209Z,1.50
2019-06-15T14:20:58.848Z,1.73
2019-06-15T14:23:38.039Z,2.93
2019-06-15T14:26:15.413Z,2.30
2019-06-15T14:28:45.490Z,1.77
2019-06-15T14:31:19.499Z,1.50
2019-06-15T14:33:55.698Z,1.70
2019-06-15T14:36:30.140Z,1.90
2019-06-15T14:39:02.430Z,1.57
2019-06-15T14:41:31.477Z,1.63
2019-06-15T14:44:01.776Z,1.80
2019-06-15T14:46:30.763Z,1.53
2019-06-15T14:48:59.837Z,2.03
2019-06-15T14:51:28.805Z,1.63
2019-06-15T14:53:59.068Z,1.60
2019-06-15T14:56:30.259Z,1.60
2019-06-15T14:59:03.496Z,1.47
2019-06-15T15:01:34.873Z,1.60
2019-06-15T15:04:03.164Z,1.60
2019-06-15T15:06:32.150Z,1.60
2019-06-15T15:09:01.052Z,1.67
2019-06-15T15:11:30.707Z,1.53
2019-06-15T15:14:00.025Z,1.80
2019-06-15T15:16:28.968Z,1.37
2019-06-15T15:18:57.904Z,1.70
2019-06-15T15:21:26.785Z,1.57
2019-06-15T15:23:57.047Z,1.30
2019-06-15T15:26:26.636Z,1.87
2019-06-15T15:28:56.574Z,1.67
2019-06-15T15:31:27.310Z,1.77
2019-06-15T15:33:56.131Z,1.60
2019-06-15T15:36:26.310Z,1.80
2019-06-15T15:38:56.141Z,1.83
2019-06-15T15:41:26.612Z,1.80
2019-06-15T15:43:55.721Z,1.70
2019-06-15T15:46:24.685Z,1.67
2019-06-15T15:48:53.539Z,1.40
2019-06-15T15:51:22.208Z,1.70
2019-06-15T15:53:51.895Z,2.07
2019-06-15T15:56:20.917Z,1.70
2019-06-15T15:58:50.990Z,1.73
2019-06-15T16:01:19.991Z,1.90
2019-06-15T16:03:51.778Z,1.70
2019-06-15T16:06:21.244Z,1.70
2019-06-15T16:08:51.030Z,1.37
2019-06-15T16:11:20.265Z,1.77
2019-06-15T16:13:49.232Z,1.80
2019-06-15T16:16:18.145Z,2.03
2019-06-15T16:18:47.202Z,1.60
2019-06-15T16:21:16.931Z,1.80
2019-06-15T16:23:49.808Z,1.73
2019-06-15T16:26:20.360Z,2.10
2019-06-15T16:28:49.001Z,1.80
2019-06-15T16:31:24.910Z,2.07
2019-06-15T16:33:48.683Z,1.63
2019-06-15T16:36:17.679Z,2.10
2019-06-15T16:38:48.139Z,2.07
2019-06-15T16:41:17.269Z,2.20
2019-06-15T16:43:46.248Z,1.87
2019-06-15T16:46:17.258Z,2.00
2019-06-15T16:48:46.853Z,1.67
2019-06-15T16:51:16.822Z,1.90
2019-06-15T16:53:47.334Z,1.77
2019-06-15T16:56:16.728Z,2.03
2019-06-15T16:58:46.824Z,2.10
2019-06-15T17:01:16.798Z,2.10
2019-06-15T17:03:47.039Z,2.20
2019-06-15T17:06:15.884Z,2.10
2019-06-15T17:08:47.757Z,2.20
2019-06-15T17:11:17.300Z,1.90
2019-06-15T17:13:47.546Z,1.90
2019-06-15T17:16:16.868Z,2.07
2019-06-15T17:18:47.061Z,1.90
2019-06-15T17:21:17.356Z,2.10
2019-06-15T17:23:46.721Z,2.00
2019-06-15T17:26:16.901Z,1.77
2019-06-15T17:28:46.176Z,2.37
2019-06-15T17:31:16.545Z,2.10
2019-06-15T17:33:46.911Z,2.50
2019-06-15T17:36:16.679Z,1.93
2019-06-15T17:38:46.235Z,1.93
2019-06-15T17:41:17.289Z,2.10
2019-06-15T17:43:47.715Z,1.83
2019-06-15T17:46:16.627Z,2.00
2019-06-15T17:48:46.766Z,1.83
2019-06-15T17:51:16.158Z,2.20
2019-06-15T17:53:47.417Z,2.00
2019-06-15T17:56:16.240Z,2.27
2019-06-15T17:58:46.334Z,2.07
2019-06-15T18:01:17.171Z,2.40
2019-06-15T18:03:53.969Z,1.90
2019-06-15T18:06:17.342Z,2.07
2019-06-15T18:08:48.762Z,1.90
2019-06-15T18:11:17.763Z,2.27
2019-06-15T18:13:47.223Z,2.10
2019-06-15T18:16:16.135Z,2.27
2019-06-15T18:18:44.926Z,2.13
2019-06-15T18:21:15.991Z,1.80
2019-06-15T18:23:46.457Z,2.10
2019-06-15T18:26:16.161Z,2.10
2019-06-15T18:28:46.876Z,2.00
2019-06-15T18:31:16.539Z,3.07
2019-06-15T18:33:47.340Z,2.30
2019-06-15T18:36:17.236Z,2.17
2019-06-15T18:38:46.638Z,2.20
2019-06-15T18:41:16.954Z,2.17
2019-06-15T18:43:46.419Z,2.23
2019-06-15T18:46:15.429Z,2.40
2019-06-15T18:48:46.863Z,2.20
2019-06-15T18:51:16.597Z,2.43
2019-06-15T18:53:46.518Z,2.03
2019-06-15T18:56:16.424Z,2.40
2019-06-15T18:58:47.697Z,2.20
2019-06-15T19:01:16.504Z,2.20
2019-06-15T19:03:46.701Z,2.40
2019-06-15T19:06:16.789Z,2.30
2019-06-15T19:08:46.837Z,2.70
2019-06-15T19:11:16.500Z,2.47
2019-06-15T19:13:47.445Z,2.60
2019-06-15T19:16:16.803Z,2.47
2019-06-15T19:18:46.220Z,4.50
2019-06-15T19:21:16.929Z,4.03
2019-06-15T19:23:47.009Z,3.20
2019-06-15T19:26:16.811Z,2.50
2019-06-15T19:28:45.952Z,2.43
2019-06-15T19:31:14.901Z,3.33
2019-06-15T19:33:43.679Z,4.60
2019-06-15T19:36:12.754Z,5.10
2019-06-15T19:38:41.390Z,5.70
2019-06-15T19:41:10.156Z,4.43
2019-06-15T19:43:39.520Z,2.73
2019-06-15T19:46:08.502Z,2.70
2019-06-15T19:48:37.232Z,3.07
2019-06-15T19:51:08.083Z,2.80
2019-06-15T19:53:36.863Z,2.50
2019-06-15T19:56:07.224Z,3.97
2019-06-15T19:58:38.946Z,2.40
2019-06-15T20:01:08.129Z,3.10
2019-06-15T20:03:37.229Z,3.67
2019-06-15T20:06:06.557Z,3.30
2019-06-15T20:08:36.194Z,3.57
2019-06-15T20:11:07.287Z,3.40
2019-06-15T20:13:37.086Z,3.10
2019-06-15T20:16:07.861Z,3.40
2019-06-15T20:18:37.450Z,3.47
2019-06-15T20:21:09.561Z,4.10
2019-06-15T20:23:38.462Z,5.33
2019-06-15T20:26:07.355Z,3.90
2019-06-15T20:28:36.562Z,4.00
2019-06-15T20:31:06.444Z,3.70
2019-06-15T20:33:37.013Z,4.03
2019-06-15T20:36:06.747Z,4.00
2019-06-15T20:38:36.410Z,4.93
2019-06-15T20:41:07.417Z,4.03
2019-06-15T20:43:36.742Z,4.27
2019-06-15T20:46:07.127Z,3.33
2019-06-15T20:48:36.517Z,2.93
2019-06-15T20:51:09.802Z,2.60
2019-06-15T20:53:36.855Z,2.93
2019-06-15T20:56:06.824Z,2.67
2019-06-15T20:58:37.274Z,2.70
2019-06-15T21:01:07.007Z,2.70
2019-06-15T21:03:36.635Z,2.40
2019-06-15T21:06:06.888Z,2.33
2019-06-15T21:08:36.321Z,3.23
2019-06-15T21:11:07.101Z,2.97
2019-06-15T21:13:37.467Z,2.30
2019-06-15T21:16:06.977Z,2.50
2019-06-15T21:18:37.469Z,2.73
2019-06-15T21:21:07.044Z,2.40
2019-06-15T21:23:37.219Z,2.73
2019-06-15T21:26:06.894Z,2.70
2019-06-15T21:28:36.975Z,2.90
2019-06-15T21:31:06.426Z,2.47
2019-06-15T21:33:36.118Z,2.50
2019-06-15T21:36:06.243Z,2.67
2019-06-15T21:38:36.194Z,2.70
2019-06-15T21:41:07.812Z,2.60
2019-06-15T21:43:36.452Z,2.57
2019-06-15T21:46:06.367Z,2.37
2019-06-15T21:48:36.494Z,2.70
2019-06-15T21:51:07.838Z,2.47
2019-06-15T21:53:36.305Z,2.80
2019-06-15T21:56:07.395Z,2.60
2019-06-15T21:58:37.400Z,2.63
2019-06-15T22:01:09.119Z,2.40
2019-06-15T22:03:38.115Z,2.50
2019-06-15T22:06:07.240Z,2.57
2019-06-15T22:08:37.020Z,3.10
2019-06-15T22:11:06.694Z,2.50
2019-06-15T22:13:37.361Z,2.73
2019-06-15T22:16:06.938Z,2.77
2019-06-15T22:18:36.544Z,2.80
2019-06-15T22:21:06.553Z,2.70
2019-06-15T22:23:36.387Z,2.60
2019-06-15T22:26:06.502Z,2.70
2019-06-15T22:28:36.332Z,2.73
2019-06-15T22:31:06.632Z,2.90
2019-06-15T22:33:36.269Z,2.43
2019-06-15T22:36:20.244Z,2.80
2019-06-15T22:38:36.827Z,2.77
2019-06-15T22:41:06.108Z,2.73
2019-06-15T22:43:36.398Z,3.30
2019-06-15T22:46:08.440Z,2.70
2019-06-15T22:48:37.348Z,2.83
2019-06-15T22:51:06.520Z,2.77
2019-06-15T22:53:36.533Z,3.10
2019-06-15T22:56:07.665Z,3.50
2019-06-15T22:58:36.255Z,2.73
2019-06-15T23:01:06.121Z,2.60
2019-06-15T23:03:35.205Z,2.63
2019-06-15T23:06:06.710Z,3.03
2019-06-15T23:08:36.551Z,3.10
2019-06-15T23:11:06.770Z,3.00
2019-06-15T23:13:38.689Z,2.47
2019-06-15T23:16:07.427Z,3.60
2019-06-15T23:18:36.259Z,2.80
2019-06-15T23:21:06.421Z,3.07
2019-06-15T23:23:36.193Z,3.07
2019-06-15T23:26:06.476Z,3.13
2019-06-15T23:28:37.943Z,2.83
2019-06-15T23:31:07.731Z,2.87
2019-06-15T23:33:36.989Z,2.60
2019-06-15T23:39:38.253Z,2.77
2019-06-15T23:42:07.029Z,2.70
2019-06-15T23:44:36.498Z,2.60
2019-06-15T23:47:05.891Z,2.57
2019-06-15T23:49:36.648Z,3.30
2019-06-15T23:52:06.791Z,2.70
2019-06-15T23:54:37.008Z,2.73
2019-06-15T23:57:06.497Z,2.50
2019-06-15T23:59:37.288Z,3.10
